Time;durP1;ratioP1;P1;durP2;ratioP2;P2;SDS_P1;SDS_P2;PMS_P1;PMS_P2;Temp;Humidity;BMP_temperature;BMP_pressure;BME280_temperature;BME280_humidity;BME280_pressure;Samples;Min_cycle;Max_cycle;Signal;HPM_P1;HPM_P2
2023/05/27 09:16:21;;;;;;;11.00;3.17;;;;;;;;;;6145654;22;1215565;-68
2023/05/27 09:18:47;;;;;;;9.68;3.70;;;;;;;;;;6272105;22;20094;-69
2023/05/27 09:21:13;;;;;;;10.80;3.92;;;;;;;;;;6298958;22;20313;-68
2023/05/27 09:23:39;;;;;;;9.75;3.50;;;;;;;;;;6300242;22;20375;-68
2023/05/27 09:26:12;;;;;;;9.38;3.55;;;;;;;;;;6297868;22;20026;-68
2023/05/27 09:28:39;;;;;;;11.00;3.85;;;;;;;;;;6299707;22;20305;-68
2023/05/27 09:31:06;;;;;;;11.50;4.70;;;;;;;;;;6299194;22;20015;-68
2023/05/27 09:33:33;;;;;;;12.38;3.42;;;;;;;;;;6298514;22;20018;-68
2023/05/27 09:36:09;;;;;;;12.52;3.42;;;;;;;;;;6297573;22;20372;-68
2023/05/27 09:38:35;;;;;;;10.60;3.50;;;;;;;;;;6297949;22;20012;-69
2023/05/27 09:41:02;;;;;;;12.27;3.35;;;;;;;;;;6297200;22;20011;-68
2023/05/27 09:43:29;;;;;;;10.77;3.42;;;;;;;;;;6297699;22;20054;-67
2023/05/27 09:46:00;;;;;;;12.98;3.05;;;;;;;;;;6297452;22;20387;-70
2023/05/27 09:48:26;;;;;;;11.95;3.78;;;;;;;;;;6297119;22;20020;-70
2023/05/27 09:50:53;;;;;;;15.15;3.88;;;;;;;;;;6271068;22;20011;-71
2023/05/27 09:53:23;;;;;;;9.90;4.18;;;;;;;;;;6300605;22;20011;-72
2023/05/27 09:55:50;;;;;;;12.95;4.05;;;;;;;;;;6301166;22;20389;-71
2023/05/27 09:58:16;;;;;;;12.18;3.63;;;;;;;;;;6298905;22;20023;-71
2023/05/27 10:00:42;;;;;;;16.65;4.97;;;;;;;;;;6299078;22;20008;-72
2023/05/27 10:03:10;;;;;;;19.90;7.43;;;;;;;;;;6298990;22;20098;-80
2023/05/27 10:05:36;;;;;;;22.20;7.45;;;;;;;;;;6272522;22;20075;-79
2023/05/27 10:08:03;;;;;;;22.63;6.82;;;;;;;;;;6298986;22;20337;-69
2023/05/27 10:10:29;;;;;;;19.83;7.22;;;;;;;;;;6299382;22;20019;-82
2023/05/27 10:12:56;;;;;;;18.35;7.22;;;;;;;;;;6299504;22;20007;-80
2023/05/27 10:15:29;;;;;;;26.85;7.45;;;;;;;;;;6298583;22;20015;-80
2023/05/27 10:17:56;;;;;;;14.73;6.47;;;;;;;;;;6298845;22;20019;-80
2023/05/27 10:20:29;;;;;;;15.57;6.20;;;;;;;;;;6299298;22;20090;-79
2023/05/27 10:22:56;;;;;;;17.15;6.85;;;;;;;;;;6298837;22;20053;-82
2023/05/27 10:25:22;;;;;;;14.52;6.70;;;;;;;;;;6300394;22;20022;-81
2023/05/27 10:27:48;;;;;;;16.02;6.97;;;;;;;;;;6300459;22;20011;-80
2023/05/27 10:30:15;;;;;;;15.68;6.57;;;;;;;;;;6298882;22;20019;-81
2023/05/27 10:32:50;;;;;;;18.40;7.40;;;;;;;;;;6299414;22;20323;-81
2023/05/27 10:35:17;;;;;;;18.50;7.20;;;;;;;;;;6271346;22;20102;-81
2023/05/27 10:37:49;;;;;;;20.35;8.13;;;;;;;;;;6299011;22;20585;-81
2023/05/27 10:40:24;;;;;;;13.38;7.22;;;;;;;;;;6246606;22;20088;-81
2023/05/27 10:42:58;;;;;;;16.20;7.75;;;;;;;;;;6299296;22;20011;-73
2023/05/27 10:45:31;;;;;;;19.02;8.13;;;;;;;;;;6300088;22;20101;-74
2023/05/27 10:47:57;;;;;;;19.95;8.23;;;;;;;;;;6298403;22;20430;-75
2023/05/27 10:50:30;;;;;;;18.60;9.25;;;;;;;;;;6271452;22;20031;-74
2023/05/27 10:52:57;;;;;;;20.55;8.43;;;;;;;;;;6296880;22;20023;-84
2023/05/27 10:55:23;;;;;;;20.10;7.82;;;;;;;;;;6298391;22;20022;-78
2023/05/27 10:57:50;;;;;;;20.85;7.97;;;;;;;;;;6297657;22;20015;-79
2023/05/27 11:00:18;;;;;;;18.50;7.85;;;;;;;;;;6299220;22;20027;-79
2023/05/27 11:02:45;;;;;;;18.60;8.30;;;;;;;;;;6272159;22;20019;-79
2023/05/27 11:05:12;;;;;;;20.20;8.95;;;;;;;;;;6300030;22;20017;-79
2023/05/27 11:07:39;;;;;;;17.52;8.40;;;;;;;;;;6269897;22;20068;-79
2023/05/27 11:10:06;;;;;;;19.35;8.00;;;;;;;;;;6299597;22;20357;-79
2023/05/27 11:12:32;;;;;;;18.75;7.90;;;;;;;;;;6300036;22;20761;-79
2023/05/27 11:14:58;;;;;;;17.95;9.18;;;;;;;;;;6271708;22;20019;-79
2023/05/27 11:17:25;;;;;;;19.80;8.57;;;;;;;;;;6298609;22;20012;-79
2023/05/27 11:19:52;;;;;;;18.95;8.18;;;;;;;;;;6300172;22;20019;-79
2023/05/27 11:22:19;;;;;;;17.95;7.50;;;;;;;;;;6297737;22;20054;-79
2023/05/27 11:25:06;;;;;;;19.48;8.25;;;;;;;;;;6300090;22;20015;-79
2023/05/27 11:27:35;;;;;;;21.70;8.57;;;;;;;;;;6299658;22;20019;-79
2023/05/27 11:30:07;;;;;;;18.58;8.63;;;;;;;;;;6299669;22;20015;-79
2023/05/27 11:32:36;;;;;;;18.13;8.55;;;;;;;;;;6300105;22;20011;-79
2023/05/27 11:35:02;;;;;;;19.75;9.00;;;;;;;;;;6298482;22;20117;-79
2023/05/27 11:37:35;;;;;;;18.58;8.20;;;;;;;;;;6299646;22;20506;-79
2023/05/27 11:40:01;;;;;;;18.30;7.93;;;;;;;;;;6272134;22;20064;-79
2023/05/27 11:42:30;;;;;;;16.45;8.25;;;;;;;;;;6299279;22;20086;-79
2023/05/27 11:44:56;;;;;;;19.08;7.97;;;;;;;;;;6298963;22;20082;-79
2023/05/27 11:47:23;;;;;;;16.77;8.40;;;;;;;;;;6298192;22;20020;-79
2023/05/27 11:49:53;;;;;;;17.48;8.98;;;;;;;;;;6298634;22;20015;-79
2023/05/27 11:52:19;;;;;;;18.92;8.35;;;;;;;;;;6300812;22;20015;-79
2023/05/27 11:54:50;;;;;;;18.15;8.43;;;;;;;;;;6300545;22;20047;-79
2023/05/27 11:57:15;;;;;;;20.15;8.95;;;;;;;;;;6300708;22;20015;-81
2023/05/27 11:59:42;;;;;;;20.58;8.73;;;;;;;;;;6301548;22;20008;-81
2023/05/27 12:02:08;;;;;;;20.60;8.75;;;;;;;;;;6300625;22;20015;-74
2023/05/27 12:04:34;;;;;;;18.90;9.55;;;;;;;;;;6299591;22;20022;-80
2023/05/27 12:07:02;;;;;;;19.23;8.93;;;;;;;;;;6300357;22;20018;-80
2023/05/27 12:09:28;;;;;;;16.70;8.00;;;;;;;;;;6301336;22;20086;-80
2023/05/27 12:11:54;;;;;;;16.27;8.43;;;;;;;;;;6300717;22;20050;-79
2023/05/27 12:14:22;;;;;;;18.23;8.40;;;;;;;;;;6301618;22;20011;-80
2023/05/27 12:16:48;;;;;;;17.92;9.52;;;;;;;;;;6300707;22;20030;-80
2023/05/27 12:19:14;;;;;;;18.83;8.32;;;;;;;;;;6299547;22;20368;-79
2023/05/27 12:21:40;;;;;;;13.60;7.57;;;;;;;;;;6300832;22;20083;-80
2023/05/27 12:24:06;;;;;;;18.35;8.20;;;;;;;;;;6301160;22;20015;-81
2023/05/27 12:26:32;;;;;;;17.60;8.82;;;;;;;;;;6299870;22;20039;-80
2023/05/27 12:28:58;;;;;;;17.88;9.40;;;;;;;;;;6300626;22;20391;-79
2023/05/27 12:31:25;;;;;;;19.33;8.68;;;;;;;;;;6272875;22;20011;-80
2023/05/27 12:33:51;;;;;;;19.52;9.23;;;;;;;;;;6272074;22;20021;-59
2023/05/27 12:36:19;;;;;;;29.52;13.05;;;;;;;;;;6300297;22;20425;-66
2023/05/27 12:38:44;;;;;;;25.88;11.15;;;;;;;;;;6300653;22;20007;-66
2023/05/27 12:41:11;;;;;;;27.63;11.05;;;;;;;;;;6299630;22;20424;-66
2023/05/27 12:43:37;;;;;;;23.60;10.75;;;;;;;;;;6301246;22;20018;-66
2023/05/27 12:46:03;;;;;;;20.98;10.43;;;;;;;;;;6298898;22;20408;-67
2023/05/27 12:48:29;;;;;;;21.10;9.85;;;;;;;;;;6299180;22;20094;-67
2023/05/27 12:50:55;;;;;;;21.15;8.75;;;;;;;;;;6300416;22;20017;-66
2023/05/27 12:53:21;;;;;;;22.88;10.07;;;;;;;;;;6300419;22;20065;-67
2023/05/27 12:55:48;;;;;;;21.13;9.73;;;;;;;;;;6300973;22;20244;-67
2023/05/27 12:58:14;;;;;;;24.35;10.02;;;;;;;;;;6299516;22;20077;-66
2023/05/27 13:00:41;;;;;;;18.35;9.73;;;;;;;;;;6297237;22;20333;-76
2023/05/27 13:03:07;;;;;;;20.77;8.52;;;;;;;;;;6299072;22;20015;-75
2023/05/27 13:05:33;;;;;;;19.98;8.38;;;;;;;;;;6270971;22;20027;-75
2023/05/27 13:08:00;;;;;;;18.98;7.68;;;;;;;;;;6299057;22;20325;-75
2023/05/27 13:10:26;;;;;;;16.83;7.47;;;;;;;;;;6272300;22;20023;-75
2023/05/27 13:12:53;;;;;;;18.25;7.47;;;;;;;;;;6301428;22;20015;-75
2023/05/27 13:15:20;;;;;;;17.40;7.80;;;;;;;;;;6300821;22;20227;-75
2023/05/27 13:17:46;;;;;;;15.25;6.97;;;;;;;;;;6300759;22;20026;-76
2023/05/27 13:20:13;;;;;;;13.93;6.68;;;;;;;;;;6300578;22;20333;-75
2023/05/27 13:22:39;;;;;;;17.63;7.00;;;;;;;;;;6300785;22;20018;-75
2023/05/27 13:25:06;;;;;;;16.13;6.68;;;;;;;;;;6300828;22;20532;-75
2023/05/27 13:27:32;;;;;;;15.35;6.72;;;;;;;;;;6272042;22;20526;-75
2023/05/27 13:29:58;;;;;;;13.25;6.28;;;;;;;;;;6299635;22;20043;-75
2023/05/27 13:32:24;;;;;;;12.48;6.25;;;;;;;;;;6299027;22;20011;-76
2023/05/27 13:34:51;;;;;;;13.65;6.03;;;;;;;;;;6300513;22;20011;-75
2023/05/27 13:37:17;;;;;;;14.80;5.47;;;;;;;;;;6299851;22;20019;-75
2023/05/27 13:39:43;;;;;;;12.23;5.90;;;;;;;;;;6300555;22;20015;-75
2023/05/27 13:42:10;;;;;;;13.50;5.70;;;;;;;;;;6298447;22;20114;-75
2023/05/27 13:44:36;;;;;;;11.07;5.47;;;;;;;;;;6299931;22;20022;-74
2023/05/27 13:47:02;;;;;;;10.75;5.50;;;;;;;;;;6299922;22;20046;-75
2023/05/27 13:49:28;;;;;;;9.60;4.65;;;;;;;;;;6273115;22;20475;-74
2023/05/27 13:51:54;;;;;;;9.65;5.00;;;;;;;;;;6300406;22;20015;-74
2023/05/27 13:54:20;;;;;;;10.90;5.18;;;;;;;;;;6301068;22;20091;-75
2023/05/27 13:56:46;;;;;;;12.27;5.05;;;;;;;;;;6301915;22;20386;-75
2023/05/27 13:59:12;;;;;;;9.35;5.18;;;;;;;;;;6298884;22;20348;-75
2023/05/27 14:01:40;;;;;;;13.63;5.45;;;;;;;;;;6300074;22;20022;-75
2023/05/27 14:04:06;;;;;;;10.77;4.65;;;;;;;;;;6299284;22;20011;-75
2023/05/27 14:06:32;;;;;;;9.68;4.65;;;;;;;;;;6300554;22;20011;-75
2023/05/27 14:08:58;;;;;;;10.55;4.50;;;;;;;;;;6298807;22;20086;-75
2023/05/27 14:11:25;;;;;;;11.40;5.38;;;;;;;;;;6300977;22;20015;-75
2023/05/27 14:13:52;;;;;;;10.35;4.50;;;;;;;;;;6299109;22;20007;-75
2023/05/27 14:16:18;;;;;;;13.52;4.30;;;;;;;;;;6271939;22;20389;-75
2023/05/27 14:18:44;;;;;;;10.68;4.22;;;;;;;;;;6300236;22;20054;-75
2023/05/27 14:21:10;;;;;;;8.98;4.55;;;;;;;;;;6299063;22;20018;-75
2023/05/27 14:23:36;;;;;;;8.20;4.35;;;;;;;;;;6298075;22;20322;-72
